sensor_id;sensor_type;location;lat;lon;timestamp;pressure;altitude;pressure_sealevel;temperature;humidity
31225;BME280;17847;31.524;74.366;2023-04-26T00:00:31;98331.59;;;22.86;59.45
31225;BME280;17847;31.524;74.366;2023-04-26T00:03:01;98342.38;;;22.86;59.86
31225;BME280;17847;31.524;74.366;2023-04-26T00:05:32;98343.19;;;22.87;59.64
31225;BME280;17847;31.524;74.366;2023-04-26T00:08:02;98339.44;;;22.82;59.62
31225;BME280;17847;31.524;74.366;2023-04-26T00:10:34;98341.91;;;22.79;58.84
31225;BME280;17847;31.524;74.366;2023-04-26T00:14:02;98344.25;;;22.91;55.86
31225;BME280;17847;31.524;74.366;2023-04-26T00:17:30;98344.22;;;22.96;56.61
31225;BME280;17847;31.524;74.366;2023-04-26T00:20:57;98351.53;;;22.90;55.97
31225;BME280;17847;31.524;74.366;2023-04-26T00:24:24;98353.59;;;23.03;56.58
31225;BME280;17847;31.524;74.366;2023-04-26T00:27:52;98365.50;;;23.02;56.20
31225;BME280;17847;31.524;74.366;2023-04-26T00:31:19;98364.22;;;22.95;56.62
31225;BME280;17847;31.524;74.366;2023-04-26T00:34:46;98366.09;;;22.94;55.49
31225;BME280;17847;31.524;74.366;2023-04-26T00:38:13;98371.75;;;22.98;56.23
31225;BME280;17847;31.524;74.366;2023-04-26T00:41:41;98376.09;;;22.94;55.76
31225;BME280;17847;31.524;74.366;2023-04-26T00:45:08;98379.41;;;22.80;57.88
31225;BME280;17847;31.524;74.366;2023-04-26T00:48:37;98382.88;;;22.91;55.25
31225;BME280;17847;31.524;74.366;2023-04-26T00:52:04;98384.16;;;22.99;54.77
31225;BME280;17847;31.524;74.366;2023-04-26T00:55:32;98391.13;;;23.10;54.83
31225;BME280;17847;31.524;74.366;2023-04-26T00:59:02;98390.19;;;23.24;53.87
31225;BME280;17847;31.524;74.366;2023-04-26T01:07:33;98412.75;;;23.10;53.64
31225;BME280;17847;31.524;74.366;2023-04-26T01:10:03;98407.78;;;23.22;53.94
31225;BME280;17847;31.524;74.366;2023-04-26T01:12:34;98419.41;;;23.22;55.59
31225;BME280;17847;31.524;74.366;2023-04-26T01:15:04;98418.56;;;23.27;53.75
31225;BME280;17847;31.524;74.366;2023-04-26T01:17:35;98420.03;;;23.43;55.84
31225;BME280;17847;31.524;74.366;2023-04-26T01:20:06;98417.31;;;23.53;56.72
31225;BME280;17847;31.524;74.366;2023-04-26T01:22:38;98417.78;;;23.60;57.05
31225;BME280;17847;31.524;74.366;2023-04-26T01:25:10;98423.94;;;23.66;57.09
31225;BME280;17847;31.524;74.366;2023-04-26T01:27:40;98430.13;;;23.71;57.44
31225;BME280;17847;31.524;74.366;2023-04-26T01:30:11;98434.69;;;23.76;57.57
31225;BME280;17847;31.524;74.366;2023-04-26T01:32:40;98431.13;;;23.81;57.00
31225;BME280;17847;31.524;74.366;2023-04-26T01:35:09;98424.31;;;23.83;56.79
31225;BME280;17847;31.524;74.366;2023-04-26T01:37:39;98432.13;;;23.90;56.73
31225;BME280;17847;31.524;74.366;2023-04-26T01:40:08;98436.38;;;23.96;57.43
31225;BME280;17847;31.524;74.366;2023-04-26T01:42:38;98430.91;;;24.01;57.31
31225;BME280;17847;31.524;74.366;2023-04-26T01:45:07;98428.44;;;24.04;56.94
31225;BME280;17847;31.524;74.366;2023-04-26T01:48:09;98433.75;;;24.14;56.84
31225;BME280;17847;31.524;74.366;2023-04-26T01:51:06;98441.53;;;24.21;55.51
31225;BME280;17847;31.524;74.366;2023-04-26T01:53:36;98441.50;;;24.26;53.89
31225;BME280;17847;31.524;74.366;2023-04-26T01:56:05;98450.31;;;24.37;54.52
31225;BME280;17847;31.524;74.366;2023-04-26T01:58:36;98458.34;;;24.47;54.84
31225;BME280;17847;31.524;74.366;2023-04-26T02:01:07;98459.06;;;24.52;55.50
31225;BME280;17847;31.524;74.366;2023-04-26T02:03:37;98448.19;;;24.57;54.87
31225;BME280;17847;31.524;74.366;2023-04-26T02:06:07;98461.81;;;24.71;54.34
31225;BME280;17847;31.524;74.366;2023-04-26T02:08:36;98461.97;;;24.80;54.34
31225;BME280;17847;31.524;74.366;2023-04-26T02:11:06;98462.69;;;24.90;54.48
31225;BME280;17847;31.524;74.366;2023-04-26T02:13:35;98463.59;;;25.04;53.45
31225;BME280;17847;31.524;74.366;2023-04-26T02:16:05;98467.84;;;25.29;54.04
31225;BME280;17847;31.524;74.366;2023-04-26T02:18:35;98468.47;;;25.77;53.16
31225;BME280;17847;31.524;74.366;2023-04-26T02:21:07;98472.63;;;26.34;50.36
31225;BME280;17847;31.524;74.366;2023-04-26T02:23:37;98469.41;;;26.73;50.17
31225;BME280;17847;31.524;74.366;2023-04-26T02:26:08;98468.59;;;27.00;47.97
31225;BME280;17847;31.524;74.366;2023-04-26T02:28:38;98470.06;;;27.20;46.03
31225;BME280;17847;31.524;74.366;2023-04-26T02:31:07;98473.63;;;27.56;45.14
31225;BME280;17847;31.524;74.366;2023-04-26T02:33:37;98469.22;;;27.91;44.32
31225;BME280;17847;31.524;74.366;2023-04-26T02:36:06;98478.75;;;28.33;42.86
31225;BME280;17847;31.524;74.366;2023-04-26T02:38:36;98481.56;;;28.59;40.45
31225;BME280;17847;31.524;74.366;2023-04-26T02:41:06;98479.25;;;28.75;39.67
31225;BME280;17847;31.524;74.366;2023-04-26T02:43:35;98485.94;;;28.69;41.16
31225;BME280;17847;31.524;74.366;2023-04-26T02:46:07;98493.16;;;28.34;40.66
31225;BME280;17847;31.524;74.366;2023-04-26T02:48:37;98494.47;;;28.36;39.89
31225;BME280;17847;31.524;74.366;2023-04-26T02:51:06;98485.59;;;28.62;40.80
31225;BME280;17847;31.524;74.366;2023-04-26T02:53:36;98493.88;;;28.48;42.17
31225;BME280;17847;31.524;74.366;2023-04-26T02:56:05;98485.72;;;28.17;41.77
31225;BME280;17847;31.524;74.366;2023-04-26T02:58:34;98491.69;;;27.97;42.88
31225;BME280;17847;31.524;74.366;2023-04-26T03:01:04;98500.16;;;27.73;41.22
31225;BME280;17847;31.524;74.366;2023-04-26T03:03:34;98495.78;;;27.50;42.78
31225;BME280;17847;31.524;74.366;2023-04-26T03:06:05;98499.53;;;27.40;42.50
31225;BME280;17847;31.524;74.366;2023-04-26T03:08:34;98507.50;;;27.37;43.76
31225;BME280;17847;31.524;74.366;2023-04-26T03:11:04;98512.06;;;27.27;43.96
31225;BME280;17847;31.524;74.366;2023-04-26T03:13:35;98516.09;;;27.30;44.64
31225;BME280;17847;31.524;74.366;2023-04-26T03:16:05;98515.19;;;27.21;43.28
31225;BME280;17847;31.524;74.366;2023-04-26T03:18:35;98528.06;;;27.29;41.77
31225;BME280;17847;31.524;74.366;2023-04-26T03:21:07;98528.84;;;27.43;40.77
31225;BME280;17847;31.524;74.366;2023-04-26T03:23:37;98522.59;;;27.43;40.69
31225;BME280;17847;31.524;74.366;2023-04-26T03:26:06;98526.13;;;27.43;39.66
31225;BME280;17847;31.524;74.366;2023-04-26T03:28:36;98522.22;;;27.72;41.10
31225;BME280;17847;31.524;74.366;2023-04-26T03:31:06;98519.16;;;27.87;40.05
31225;BME280;17847;31.524;74.366;2023-04-26T03:33:36;98526.13;;;28.01;37.77
31225;BME280;17847;31.524;74.366;2023-04-26T03:36:06;98520.84;;;28.19;39.29
31225;BME280;17847;31.524;74.366;2023-04-26T03:38:35;98527.47;;;28.35;39.20
31225;BME280;17847;31.524;74.366;2023-04-26T03:41:04;98531.34;;;28.42;39.94
31225;BME280;17847;31.524;74.366;2023-04-26T03:43:33;98529.53;;;28.29;40.65
31225;BME280;17847;31.524;74.366;2023-04-26T03:46:03;98528.25;;;28.27;40.40
31225;BME280;17847;31.524;74.366;2023-04-26T03:48:33;98527.44;;;28.26;41.31
31225;BME280;17847;31.524;74.366;2023-04-26T03:51:02;98532.41;;;28.33;38.66
31225;BME280;17847;31.524;74.366;2023-04-26T03:53:32;98533.09;;;28.38;39.43
31225;BME280;17847;31.524;74.366;2023-04-26T03:56:01;98536.81;;;28.42;38.98
31225;BME280;17847;31.524;74.366;2023-04-26T03:58:32;98530.41;;;28.47;40.91
31225;BME280;17847;31.524;74.366;2023-04-26T04:01:02;98533.88;;;28.70;38.21
31225;BME280;17847;31.524;74.366;2023-04-26T04:03:33;98536.22;;;28.85;38.53
31225;BME280;17847;31.524;74.366;2023-04-26T04:06:08;98534.13;;;28.82;38.14
31225;BME280;17847;31.524;74.366;2023-04-26T04:08:37;98536.88;;;28.90;36.13
31225;BME280;17847;31.524;74.366;2023-04-26T04:11:08;98546.34;;;28.93;39.47
31225;BME280;17847;31.524;74.366;2023-04-26T04:13:38;98544.88;;;28.87;40.13
31225;BME280;17847;31.524;74.366;2023-04-26T04:16:07;98540.25;;;28.96;38.44
31225;BME280;17847;31.524;74.366;2023-04-26T04:18:38;98540.75;;;28.98;39.58
31225;BME280;17847;31.524;74.366;2023-04-26T04:21:07;98546.81;;;28.95;39.43
31225;BME280;17847;31.524;74.366;2023-04-26T04:23:38;98546.38;;;29.01;39.00
31225;BME280;17847;31.524;74.366;2023-04-26T04:26:09;98546.28;;;29.24;37.81
31225;BME280;17847;31.524;74.366;2023-04-26T04:28:40;98544.25;;;29.29;36.52
31225;BME280;17847;31.524;74.366;2023-04-26T04:31:10;98547.00;;;29.55;36.32
31225;BME280;17847;31.524;74.366;2023-04-26T04:33:41;98551.78;;;29.50;36.75
31225;BME280;17847;31.524;74.366;2023-04-26T04:36:12;98548.59;;;29.56;37.89
31225;BME280;17847;31.524;74.366;2023-04-26T04:38:45;98542.19;;;30.04;32.27
31225;BME280;17847;31.524;74.366;2023-04-26T04:41:18;98548.38;;;30.47;34.39
31225;BME280;17847;31.524;74.366;2023-04-26T04:43:51;98546.59;;;30.51;36.49
31225;BME280;17847;31.524;74.366;2023-04-26T04:46:22;98542.88;;;30.56;34.13
31225;BME280;17847;31.524;74.366;2023-04-26T04:48:54;98548.19;;;30.61;36.58
31225;BME280;17847;31.524;74.366;2023-04-26T04:51:25;98543.03;;;30.59;37.59
31225;BME280;17847;31.524;74.366;2023-04-26T04:53:56;98541.88;;;30.69;35.92
31225;BME280;17847;31.524;74.366;2023-04-26T04:56:26;98545.66;;;30.85;33.68
31225;BME280;17847;31.524;74.366;2023-04-26T04:58:57;98532.78;;;30.86;34.77
31225;BME280;17847;31.524;74.366;2023-04-26T05:01:28;98540.16;;;31.02;32.94
31225;BME280;17847;31.524;74.366;2023-04-26T05:03:59;98537.69;;;31.30;31.57
31225;BME280;17847;31.524;74.366;2023-04-26T05:06:30;98540.13;;;31.32;30.22
31225;BME280;17847;31.524;74.366;2023-04-26T05:09:02;98537.22;;;31.57;31.41
31225;BME280;17847;31.524;74.366;2023-04-26T05:11:35;98532.31;;;31.42;33.40
31225;BME280;17847;31.524;74.366;2023-04-26T05:14:12;98529.97;;;31.32;33.74
31225;BME280;17847;31.524;74.366;2023-04-26T05:16:42;98524.16;;;32.29;27.10
31225;BME280;17847;31.524;74.366;2023-04-26T05:19:12;98525.81;;;32.54;26.29
31225;BME280;17847;31.524;74.366;2023-04-26T05:21:41;98526.34;;;32.92;25.57
31225;BME280;17847;31.524;74.366;2023-04-26T05:24:11;98520.97;;;32.96;30.94
31225;BME280;17847;31.524;74.366;2023-04-26T05:26:41;98528.84;;;33.10;24.09
31225;BME280;17847;31.524;74.366;2023-04-26T05:29:30;98527.59;;;33.19;26.48
31225;BME280;17847;31.524;74.366;2023-04-26T05:32:20;98516.59;;;32.95;29.54
31225;BME280;17847;31.524;74.366;2023-04-26T05:35:13;98511.81;;;33.16;24.75
31225;BME280;17847;31.524;74.366;2023-04-26T05:37:44;98513.75;;;33.28;31.20
31225;BME280;17847;31.524;74.366;2023-04-26T05:40:14;98508.84;;;32.97;28.11
31225;BME280;17847;31.524;74.366;2023-04-26T05:42:44;98513.88;;;32.83;28.47
31225;BME280;17847;31.524;74.366;2023-04-26T05:45:14;98509.84;;;32.68;29.66
31225;BME280;17847;31.524;74.366;2023-04-26T05:47:43;98505.41;;;32.64;28.55
31225;BME280;17847;31.524;74.366;2023-04-26T05:50:15;98509.44;;;32.33;30.16
31225;BME280;17847;31.524;74.366;2023-04-26T05:52:45;98510.25;;;32.34;31.57
31225;BME280;17847;31.524;74.366;2023-04-26T05:55:14;98501.34;;;32.49;25.85
31225;BME280;17847;31.524;74.366;2023-04-26T05:57:43;98511.19;;;32.50;29.28
31225;BME280;17847;31.524;74.366;2023-04-26T06:00:14;98511.28;;;32.29;31.14
31225;BME280;17847;31.524;74.366;2023-04-26T06:02:46;98506.06;;;32.61;25.83
31225;BME280;17847;31.524;74.366;2023-04-26T06:05:17;98515.81;;;32.70;28.09
31225;BME280;17847;31.524;74.366;2023-04-26T06:07:48;98508.28;;;32.91;30.99
31225;BME280;17847;31.524;74.366;2023-04-26T06:10:17;98502.66;;;32.76;32.38
31225;BME280;17847;31.524;74.366;2023-04-26T06:12:47;98503.34;;;32.97;28.41
31225;BME280;17847;31.524;74.366;2023-04-26T06:15:18;98499.75;;;33.33;26.28
31225;BME280;17847;31.524;74.366;2023-04-26T06:17:47;98500.69;;;33.13;30.08
31225;BME280;17847;31.524;74.366;2023-04-26T06:20:17;98494.25;;;33.33;27.09
31225;BME280;17847;31.524;74.366;2023-04-26T06:22:48;98496.47;;;33.27;28.02
31225;BME280;17847;31.524;74.366;2023-04-26T06:25:18;98484.81;;;33.18;28.03
31225;BME280;17847;31.524;74.366;2023-04-26T06:27:48;98478.75;;;32.88;31.08
31225;BME280;17847;31.524;74.366;2023-04-26T06:30:18;98487.69;;;32.73;29.67
31225;BME280;17847;31.524;74.366;2023-04-26T06:32:47;98475.53;;;33.11;24.03
31225;BME280;17847;31.524;74.366;2023-04-26T06:35:17;98478.44;;;33.14;23.15
31225;BME280;17847;31.524;74.366;2023-04-26T06:37:46;98472.09;;;33.26;28.32
31225;BME280;17847;31.524;74.366;2023-04-26T06:40:17;98471.75;;;33.27;25.79
31225;BME280;17847;31.524;74.366;2023-04-26T06:42:46;98473.22;;;33.37;23.06
31225;BME280;17847;31.524;74.366;2023-04-26T06:45:16;98476.91;;;33.57;24.57
31225;BME280;17847;31.524;74.366;2023-04-26T06:47:46;98463.09;;;33.53;29.06
31225;BME280;17847;31.524;74.366;2023-04-26T06:50:16;98468.63;;;33.41;32.46
31225;BME280;17847;31.524;74.366;2023-04-26T06:52:46;98455.88;;;33.21;26.44
31225;BME280;17847;31.524;74.366;2023-04-26T06:55:21;98452.31;;;33.20;30.70
31225;BME280;17847;31.524;74.366;2023-04-26T06:57:51;98442.38;;;33.04;30.88
31225;BME280;17847;31.524;74.366;2023-04-26T07:00:21;98442.84;;;33.18;24.88
31225;BME280;17847;31.524;74.366;2023-04-26T07:02:51;98445.59;;;32.93;27.24
31225;BME280;17847;31.524;74.366;2023-04-26T07:05:20;98437.97;;;32.75;24.96
31225;BME280;17847;31.524;74.366;2023-04-26T07:07:50;98435.94;;;33.24;25.49
31225;BME280;17847;31.524;74.366;2023-04-26T07:10:21;98429.66;;;33.11;27.47
31225;BME280;17847;31.524;74.366;2023-04-26T07:12:50;98428.41;;;33.09;27.29
31225;BME280;17847;31.524;74.366;2023-04-26T07:15:20;98423.34;;;33.35;25.14
31225;BME280;17847;31.524;74.366;2023-04-26T07:17:50;98424.97;;;33.52;24.27
31225;BME280;17847;31.524;74.366;2023-04-26T07:20:20;98429.78;;;33.27;28.65
31225;BME280;17847;31.524;74.366;2023-04-26T07:22:50;98421.06;;;33.25;29.95
31225;BME280;17847;31.524;74.366;2023-04-26T07:25:20;98419.75;;;33.19;31.46
31225;BME280;17847;31.524;74.366;2023-04-26T07:27:49;98414.63;;;32.44;28.61
31225;BME280;17847;31.524;74.366;2023-04-26T07:30:20;98412.25;;;32.43;29.34
31225;BME280;17847;31.524;74.366;2023-04-26T07:32:50;98404.25;;;32.62;30.40
31225;BME280;17847;31.524;74.366;2023-04-26T07:35:21;98398.03;;;32.89;25.40
31225;BME280;17847;31.524;74.366;2023-04-26T07:37:52;98401.50;;;32.86;29.73
31225;BME280;17847;31.524;74.366;2023-04-26T07:40:21;98396.56;;;32.92;28.75
31225;BME280;17847;31.524;74.366;2023-04-26T07:42:52;98395.75;;;32.91;29.36
31225;BME280;17847;31.524;74.366;2023-04-26T07:45:31;98388.88;;;32.97;30.15
31225;BME280;17847;31.524;74.366;2023-04-26T07:48:01;98382.78;;;32.64;29.65
31225;BME280;17847;31.524;74.366;2023-04-26T07:50:32;98391.47;;;32.66;28.51
31225;BME280;17847;31.524;74.366;2023-04-26T07:53:01;98387.78;;;32.62;30.27
31225;BME280;17847;31.524;74.366;2023-04-26T07:55:30;98377.72;;;32.54;32.67
31225;BME280;17847;31.524;74.366;2023-04-26T07:58:00;98363.34;;;32.21;32.50
31225;BME280;17847;31.524;74.366;2023-04-26T08:00:30;98360.44;;;31.93;33.08
31225;BME280;17847;31.524;74.366;2023-04-26T08:02:59;98358.00;;;32.12;30.19
31225;BME280;17847;31.524;74.366;2023-04-26T08:05:29;98357.19;;;32.12;33.69
31225;BME280;17847;31.524;74.366;2023-04-26T08:08:00;98355.78;;;31.93;34.65
31225;BME280;17847;31.524;74.366;2023-04-26T08:10:29;98344.44;;;31.71;35.36
31225;BME280;17847;31.524;74.366;2023-04-26T08:12:59;98339.63;;;31.55;36.19
31225;BME280;17847;31.524;74.366;2023-04-26T08:15:31;98337.09;;;31.30;35.82
31225;BME280;17847;31.524;74.366;2023-04-26T08:18:00;98322.47;;;31.46;34.13
31225;BME280;17847;31.524;74.366;2023-04-26T08:20:30;98317.34;;;31.57;35.16
31225;BME280;17847;31.524;74.366;2023-04-26T08:23:02;98322.50;;;31.58;32.95
31225;BME280;17847;31.524;74.366;2023-04-26T08:25:32;98309.69;;;31.50;34.94
31225;BME280;17847;31.524;74.366;2023-04-26T08:28:02;98310.69;;;31.13;36.22
31225;BME280;17847;31.524;74.366;2023-04-26T08:30:32;98308.38;;;31.03;35.36
31225;BME280;17847;31.524;74.366;2023-04-26T08:33:02;98303.31;;;30.93;35.09
31225;BME280;17847;31.524;74.366;2023-04-26T08:35:32;98302.94;;;30.94;34.19
31225;BME280;17847;31.524;74.366;2023-04-26T08:38:04;98294.50;;;30.87;35.19
31225;BME280;17847;31.524;74.366;2023-04-26T08:40:40;98296.44;;;30.66;34.66
31225;BME280;17847;31.524;74.366;2023-04-26T08:43:14;98284.16;;;30.72;32.31
31225;BME280;17847;31.524;74.366;2023-04-26T08:45:45;98281.81;;;30.83;33.65
31225;BME280;17847;31.524;74.366;2023-04-26T08:48:17;98274.53;;;31.07;32.45
31225;BME280;17847;31.524;74.366;2023-04-26T08:50:47;98274.53;;;31.07;32.65
31225;BME280;17847;31.524;74.366;2023-04-26T08:53:19;98274.78;;;31.02;32.79
31225;BME280;17847;31.524;74.366;2023-04-26T08:55:50;98268.44;;;31.23;32.50
31225;BME280;17847;31.524;74.366;2023-04-26T08:58:20;98265.69;;;31.10;34.40
31225;BME280;17847;31.524;74.366;2023-04-26T09:00:51;98265.28;;;31.33;32.77
31225;BME280;17847;31.524;74.366;2023-04-26T09:03:22;98251.03;;;31.39;31.42
31225;BME280;17847;31.524;74.366;2023-04-26T09:05:55;98259.13;;;31.48;29.82
31225;BME280;17847;31.524;74.366;2023-04-26T09:08:27;98249.84;;;31.73;31.72
31225;BME280;17847;31.524;74.366;2023-04-26T09:10:57;98254.72;;;31.92;31.25
31225;BME280;17847;31.524;74.366;2023-04-26T09:13:29;98245.50;;;32.08;29.28
31225;BME280;17847;31.524;74.366;2023-04-26T09:15:59;98242.63;;;32.05;32.53
31225;BME280;17847;31.524;74.366;2023-04-26T09:18:31;98237.13;;;32.05;30.13
31225;BME280;17847;31.524;74.366;2023-04-26T09:21:07;98235.34;;;32.09;29.89
31225;BME280;17847;31.524;74.366;2023-04-26T09:23:58;98228.81;;;32.14;25.29
31225;BME280;17847;31.524;74.366;2023-04-26T09:26:32;98223.19;;;32.34;27.63
31225;BME280;17847;31.524;74.366;2023-04-26T09:29:16;98216.63;;;32.51;26.45
31225;BME280;17847;31.524;74.366;2023-04-26T09:31:47;98205.47;;;32.44;29.70
31225;BME280;17847;31.524;74.366;2023-04-26T09:34:18;98203.34;;;32.25;29.30
31225;BME280;17847;31.524;74.366;2023-04-26T09:36:52;98202.31;;;32.30;30.24
31225;BME280;17847;31.524;74.366;2023-04-26T09:39:38;98202.81;;;32.47;27.09
31225;BME280;17847;31.524;74.366;2023-04-26T09:42:09;98198.16;;;32.48;26.28
31225;BME280;17847;31.524;74.366;2023-04-26T09:45:14;98192.13;;;32.58;25.00
31225;BME280;17847;31.524;74.366;2023-04-26T09:48:43;98175.09;;;32.92;23.81
31225;BME280;17847;31.524;74.366;2023-04-26T09:51:15;98171.91;;;33.06;24.69
31225;BME280;17847;31.524;74.366;2023-04-26T09:53:46;98169.13;;;33.18;25.67
31225;BME280;17847;31.524;74.366;2023-04-26T09:56:18;98168.34;;;33.18;26.27
31225;BME280;17847;31.524;74.366;2023-04-26T09:58:57;98158.06;;;33.15;27.13
31225;BME280;17847;31.524;74.366;2023-04-26T10:01:27;98152.09;;;32.97;26.38
31225;BME280;17847;31.524;74.366;2023-04-26T10:04:01;98143.06;;;32.96;24.08
31225;BME280;17847;31.524;74.366;2023-04-26T10:06:32;98138.09;;;33.02;23.97
31225;BME280;17847;31.524;74.366;2023-04-26T10:09:01;98141.63;;;33.03;23.82
31225;BME280;17847;31.524;74.366;2023-04-26T10:11:33;98135.47;;;33.06;24.40
31225;BME280;17847;31.524;74.366;2023-04-26T10:14:05;98127.41;;;33.13;25.08
31225;BME280;17847;31.524;74.366;2023-04-26T10:16:36;98122.47;;;33.18;21.83
31225;BME280;17847;31.524;74.366;2023-04-26T10:19:06;98126.94;;;33.11;23.58
31225;BME280;17847;31.524;74.366;2023-04-26T10:21:39;98116.00;;;33.26;21.19
31225;BME280;17847;31.524;74.366;2023-04-26T10:24:11;98112.09;;;33.27;24.80
31225;BME280;17847;31.524;74.366;2023-04-26T10:26:52;98106.09;;;33.22;23.08
31225;BME280;17847;31.524;74.366;2023-04-26T10:29:30;98106.03;;;33.06;24.48
31225;BME280;17847;31.524;74.366;2023-04-26T10:32:15;98091.44;;;33.02;24.98
31225;BME280;17847;31.524;74.366;2023-04-26T10:35:22;98100.03;;;33.01;24.03
31225;BME280;17847;31.524;74.366;2023-04-26T10:40:38;98089.75;;;33.13;25.00
31225;BME280;17847;31.524;74.366;2023-04-26T10:45:46;98087.13;;;33.32;22.73
31225;BME280;17847;31.524;74.366;2023-04-26T10:48:29;98086.34;;;33.32;22.71
31225;BME280;17847;31.524;74.366;2023-04-26T10:59:11;98065.69;;;32.75;23.77
31225;BME280;17847;31.524;74.366;2023-04-26T11:02:00;98067.75;;;32.78;23.98
31225;BME280;17847;31.524;74.366;2023-04-26T11:04:53;98055.78;;;32.71;25.93
31225;BME280;17847;31.524;74.366;2023-04-26T11:07:37;98051.94;;;32.60;23.02
31225;BME280;17847;31.524;74.366;2023-04-26T11:10:08;98051.59;;;32.61;24.57
31225;BME280;17847;31.524;74.366;2023-04-26T11:12:41;98047.34;;;32.48;24.22
31225;BME280;17847;31.524;74.366;2023-04-26T11:15:11;98047.84;;;32.38;23.66
31225;BME280;17847;31.524;74.366;2023-04-26T11:17:41;98050.66;;;32.26;25.94
31225;BME280;17847;31.524;74.366;2023-04-26T11:20:15;98046.69;;;32.39;26.04
31225;BME280;17847;31.524;74.366;2023-04-26T11:22:46;98037.34;;;32.56;21.53
31225;BME280;17847;31.524;74.366;2023-04-26T11:25:16;98027.59;;;32.58;22.55
31225;BME280;17847;31.524;74.366;2023-04-26T11:27:47;98035.09;;;32.45;23.47
31225;BME280;17847;31.524;74.366;2023-04-26T11:30:18;98029.19;;;32.43;23.01
31225;BME280;17847;31.524;74.366;2023-04-26T11:32:48;98022.81;;;32.39;22.85
31225;BME280;17847;31.524;74.366;2023-04-26T11:35:17;98013.63;;;32.47;22.02
31225;BME280;17847;31.524;74.366;2023-04-26T11:37:52;98011.94;;;32.43;24.09
31225;BME280;17847;31.524;74.366;2023-04-26T11:40:22;98024.94;;;32.46;23.05
31225;BME280;17847;31.524;74.366;2023-04-26T11:42:52;98018.22;;;32.43;24.14
31225;BME280;17847;31.524;74.366;2023-04-26T11:45:21;98015.16;;;32.61;20.76
31225;BME280;17847;31.524;74.366;2023-04-26T11:47:51;98007.25;;;32.59;21.09
31225;BME280;17847;31.524;74.366;2023-04-26T11:50:21;98006.22;;;32.64;21.19
31225;BME280;17847;31.524;74.366;2023-04-26T11:52:55;98009.19;;;32.59;21.89
31225;BME280;17847;31.524;74.366;2023-04-26T11:55:29;98016.22;;;32.56;21.57
31225;BME280;17847;31.524;74.366;2023-04-26T11:58:13;98013.25;;;32.49;24.71
31225;BME280;17847;31.524;74.366;2023-04-26T12:00:59;98011.56;;;32.29;23.89
31225;BME280;17847;31.524;74.366;2023-04-26T12:03:35;98014.06;;;32.34;24.67
31225;BME280;17847;31.524;74.366;2023-04-26T12:06:06;98015.66;;;32.35;23.54
31225;BME280;17847;31.524;74.366;2023-04-26T12:08:35;98007.41;;;32.19;25.06
31225;BME280;17847;31.524;74.366;2023-04-26T12:11:04;98016.16;;;31.97;28.72
31225;BME280;17847;31.524;74.366;2023-04-26T12:13:34;98012.63;;;31.69;29.82
31225;BME280;17847;31.524;74.366;2023-04-26T12:16:11;98006.81;;;31.58;24.35
31225;BME280;17847;31.524;74.366;2023-04-26T12:18:54;98004.81;;;31.31;29.30
31225;BME280;17847;31.524;74.366;2023-04-26T12:21:24;98006.66;;;31.14;29.62
31225;BME280;17847;31.524;74.366;2023-04-26T12:23:57;98013.50;;;30.84;31.61
31225;BME280;17847;31.524;74.366;2023-04-26T12:26:42;98012.88;;;30.54;32.22
31225;BME280;17847;31.524;74.366;2023-04-26T12:29:12;98017.25;;;30.34;31.30
31225;BME280;17847;31.524;74.366;2023-04-26T12:31:42;98012.91;;;30.21;32.11
31225;BME280;17847;31.524;74.366;2023-04-26T12:34:11;98013.34;;;30.23;31.58
31225;BME280;17847;31.524;74.366;2023-04-26T12:36:41;98012.88;;;30.09;33.07
31225;BME280;17847;31.524;74.366;2023-04-26T12:39:13;98014.66;;;30.05;32.78
31225;BME280;17847;31.524;74.366;2023-04-26T12:41:44;98019.81;;;29.86;33.50
31225;BME280;17847;31.524;74.366;2023-04-26T12:44:14;98013.50;;;29.73;33.64
31225;BME280;17847;31.524;74.366;2023-04-26T12:46:45;98021.53;;;29.70;32.94
31225;BME280;17847;31.524;74.366;2023-04-26T12:49:15;98017.94;;;29.78;30.98
31225;BME280;17847;31.524;74.366;2023-04-26T12:51:44;98024.13;;;29.66;33.14
31225;BME280;17847;31.524;74.366;2023-04-26T12:54:14;98025.81;;;29.59;33.83
31225;BME280;17847;31.524;74.366;2023-04-26T12:56:43;98023.06;;;29.59;32.92
31225;BME280;17847;31.524;74.366;2023-04-26T12:59:15;98027.47;;;29.51;33.26
31225;BME280;17847;31.524;74.366;2023-04-26T13:01:44;98023.06;;;29.38;34.16
31225;BME280;17847;31.524;74.366;2023-04-26T13:04:14;98029.19;;;29.26;34.76
31225;BME280;17847;31.524;74.366;2023-04-26T13:06:43;98028.28;;;29.22;33.08
31225;BME280;17847;31.524;74.366;2023-04-26T13:09:13;98032.97;;;29.13;35.87
31225;BME280;17847;31.524;74.366;2023-04-26T13:11:42;98033.38;;;29.03;36.58
31225;BME280;17847;31.524;74.366;2023-04-26T13:14:12;98033.56;;;28.98;37.64
31225;BME280;17847;31.524;74.366;2023-04-26T13:16:41;98035.53;;;28.89;36.14
31225;BME280;17847;31.524;74.366;2023-04-26T13:19:11;98033.97;;;28.79;37.68
31225;BME280;17847;31.524;74.366;2023-04-26T13:21:41;98037.19;;;28.73;37.94
31225;BME280;17847;31.524;74.366;2023-04-26T13:24:11;98023.91;;;28.63;37.44
31225;BME280;17847;31.524;74.366;2023-04-26T13:26:41;98032.56;;;28.56;38.28
31225;BME280;17847;31.524;74.366;2023-04-26T13:29:10;98033.41;;;28.48;38.30
31225;BME280;17847;31.524;74.366;2023-04-26T13:31:39;98034.69;;;28.42;38.51
31225;BME280;17847;31.524;74.366;2023-04-26T13:34:09;98035.66;;;28.37;37.20
31225;BME280;17847;31.524;74.366;2023-04-26T13:36:41;98029.44;;;28.37;35.07
31225;BME280;17847;31.524;74.366;2023-04-26T13:39:11;98034.53;;;28.38;37.83
31225;BME280;17847;31.524;74.366;2023-04-26T13:41:40;98031.84;;;28.30;38.40
31225;BME280;17847;31.524;74.366;2023-04-26T13:44:11;98044.50;;;28.26;39.62
31225;BME280;17847;31.524;74.366;2023-04-26T13:46:42;98048.88;;;28.18;39.76